sensor_id;sensor_type;location;lat;lon;timestamp;temperature;humidity
55064;DHT22;40963;52.168;21.296;2023-03-09T00:00:52;1.00;99.90
55064;DHT22;40963;52.168;21.296;2023-03-09T00:03:19;0.90;99.90
55064;DHT22;40963;52.168;21.296;2023-03-09T00:05:56;0.90;99.90
55064;DHT22;40963;52.168;21.296;2023-03-09T00:08:22;1.00;99.90
55064;DHT22;40963;52.168;21.296;2023-03-09T00:10:47;0.90;99.90
55064;DHT22;40963;52.168;21.296;2023-03-09T00:13:17;0.90;99.90
55064;DHT22;40963;52.168;21.296;2023-03-09T00:15:43;0.90;99.90
55064;DHT22;40963;52.168;21.296;2023-03-09T00:18:10;0.90;99.90
55064;DHT22;40963;52.168;21.296;2023-03-09T00:20:37;0.90;99.90
55064;DHT22;40963;52.168;21.296;2023-03-09T00:23:03;0.90;99.90
55064;DHT22;40963;52.168;21.296;2023-03-09T00:25:34;0.90;99.90
55064;DHT22;40963;52.168;21.296;2023-03-09T00:28:00;0.90;99.90
55064;DHT22;40963;52.168;21.296;2023-03-09T00:30:25;0.90;99.90
55064;DHT22;40963;52.168;21.296;2023-03-09T00:36:16;0.90;99.90
55064;DHT22;40963;52.168;21.296;2023-03-09T00:38:42;0.80;99.90
55064;DHT22;40963;52.168;21.296;2023-03-09T00:41:08;0.80;99.90
55064;DHT22;40963;52.168;21.296;2023-03-09T00:43:34;0.80;99.90
55064;DHT22;40963;52.168;21.296;2023-03-09T00:46:00;0.80;99.90
55064;DHT22;40963;52.168;21.296;2023-03-09T00:48:26;0.80;99.90
55064;DHT22;40963;52.168;21.296;2023-03-09T00:50:51;0.80;99.90
55064;DHT22;40963;52.168;21.296;2023-03-09T00:53:17;0.80;99.90
55064;DHT22;40963;52.168;21.296;2023-03-09T00:55:43;0.80;99.90
55064;DHT22;40963;52.168;21.296;2023-03-09T00:58:09;0.80;99.90
55064;DHT22;40963;52.168;21.296;2023-03-09T01:00:35;0.80;99.90
55064;DHT22;40963;52.168;21.296;2023-03-09T01:03:01;0.80;99.90
55064;DHT22;40963;52.168;21.296;2023-03-09T01:05:26;0.80;99.90
55064;DHT22;40963;52.168;21.296;2023-03-09T01:07:52;0.80;99.90
55064;DHT22;40963;52.168;21.296;2023-03-09T01:10:18;0.80;99.90
55064;DHT22;40963;52.168;21.296;2023-03-09T01:12:44;0.80;99.90
55064;DHT22;40963;52.168;21.296;2023-03-09T01:15:10;0.70;99.90
55064;DHT22;40963;52.168;21.296;2023-03-09T01:17:37;0.80;99.90
55064;DHT22;40963;52.168;21.296;2023-03-09T01:20:03;0.70;99.90
55064;DHT22;40963;52.168;21.296;2023-03-09T01:22:29;0.80;99.90
55064;DHT22;40963;52.168;21.296;2023-03-09T01:24:55;0.80;99.90
55064;DHT22;40963;52.168;21.296;2023-03-09T01:27:21;0.70;99.90
55064;DHT22;40963;52.168;21.296;2023-03-09T01:29:46;0.70;99.90
55064;DHT22;40963;52.168;21.296;2023-03-09T01:32:12;0.70;99.90
55064;DHT22;40963;52.168;21.296;2023-03-09T01:34:38;0.70;99.90
55064;DHT22;40963;52.168;21.296;2023-03-09T01:37:03;0.80;99.90
55064;DHT22;40963;52.168;21.296;2023-03-09T01:39:29;0.70;99.90
55064;DHT22;40963;52.168;21.296;2023-03-09T01:41:54;0.70;99.90
55064;DHT22;40963;52.168;21.296;2023-03-09T01:44:21;0.70;99.90
55064;DHT22;40963;52.168;21.296;2023-03-09T01:46:53;0.70;99.90
55064;DHT22;40963;52.168;21.296;2023-03-09T01:52:12;0.70;99.90
55064;DHT22;40963;52.168;21.296;2023-03-09T01:57:34;0.70;99.90
55064;DHT22;40963;52.168;21.296;2023-03-09T02:00:22;0.70;99.90
55064;DHT22;40963;52.168;21.296;2023-03-09T02:02:52;0.70;99.90
55064;DHT22;40963;52.168;21.296;2023-03-09T02:05:29;0.70;99.90
55064;DHT22;40963;52.168;21.296;2023-03-09T02:07:57;0.70;99.90
55064;DHT22;40963;52.168;21.296;2023-03-09T02:12:56;0.70;99.90
55064;DHT22;40963;52.168;21.296;2023-03-09T02:15:23;0.70;99.90
55064;DHT22;40963;52.168;21.296;2023-03-09T02:17:50;0.60;99.90
55064;DHT22;40963;52.168;21.296;2023-03-09T02:20:37;0.70;99.90
55064;DHT22;40963;52.168;21.296;2023-03-09T02:23:10;0.70;99.90
55064;DHT22;40963;52.168;21.296;2023-03-09T02:28:29;0.70;99.90
55064;DHT22;40963;52.168;21.296;2023-03-09T02:30:54;0.70;99.90
55064;DHT22;40963;52.168;21.296;2023-03-09T02:33:27;0.70;99.90
55064;DHT22;40963;52.168;21.296;2023-03-09T02:35:54;0.70;99.90
55064;DHT22;40963;52.168;21.296;2023-03-09T02:38:20;0.70;99.90
55064;DHT22;40963;52.168;21.296;2023-03-09T02:40:47;0.70;99.90
55064;DHT22;40963;52.168;21.296;2023-03-09T02:43:16;0.70;99.90
55064;DHT22;40963;52.168;21.296;2023-03-09T02:45:42;0.70;99.90
55064;DHT22;40963;52.168;21.296;2023-03-09T02:48:08;0.70;99.90
55064;DHT22;40963;52.168;21.296;2023-03-09T02:50:34;0.60;99.90
55064;DHT22;40963;52.168;21.296;2023-03-09T02:53:00;0.70;99.90
55064;DHT22;40963;52.168;21.296;2023-03-09T02:55:26;0.70;99.90
55064;DHT22;40963;52.168;21.296;2023-03-09T02:57:51;0.70;99.90
55064;DHT22;40963;52.168;21.296;2023-03-09T03:00:17;0.70;99.90
55064;DHT22;40963;52.168;21.296;2023-03-09T03:02:46;0.70;99.90
55064;DHT22;40963;52.168;21.296;2023-03-09T03:05:12;0.70;99.90
55064;DHT22;40963;52.168;21.296;2023-03-09T03:07:37;0.70;99.90
55064;DHT22;40963;52.168;21.296;2023-03-09T03:10:03;0.70;99.90
55064;DHT22;40963;52.168;21.296;2023-03-09T03:12:29;0.70;99.90
55064;DHT22;40963;52.168;21.296;2023-03-09T03:14:55;0.70;99.90
55064;DHT22;40963;52.168;21.296;2023-03-09T03:17:20;0.70;99.90
55064;DHT22;40963;52.168;21.296;2023-03-09T03:19:46;0.70;99.90
55064;DHT22;40963;52.168;21.296;2023-03-09T03:22:12;0.70;99.90
55064;DHT22;40963;52.168;21.296;2023-03-09T03:24:38;0.70;99.90
55064;DHT22;40963;52.168;21.296;2023-03-09T03:27:04;0.70;99.90
55064;DHT22;40963;52.168;21.296;2023-03-09T03:29:30;0.60;99.90
55064;DHT22;40963;52.168;21.296;2023-03-09T03:31:56;0.70;99.90
55064;DHT22;40963;52.168;21.296;2023-03-09T03:34:22;0.70;99.90
55064;DHT22;40963;52.168;21.296;2023-03-09T03:36:48;0.70;99.90
55064;DHT22;40963;52.168;21.296;2023-03-09T03:39:14;0.70;99.90
55064;DHT22;40963;52.168;21.296;2023-03-09T03:41:40;0.70;99.90
55064;DHT22;40963;52.168;21.296;2023-03-09T03:44:05;0.70;99.90
55064;DHT22;40963;52.168;21.296;2023-03-09T03:46:31;0.70;99.90
55064;DHT22;40963;52.168;21.296;2023-03-09T03:48:57;0.70;99.90
55064;DHT22;40963;52.168;21.296;2023-03-09T03:51:23;0.70;99.90
55064;DHT22;40963;52.168;21.296;2023-03-09T03:53:49;0.70;99.90
55064;DHT22;40963;52.168;21.296;2023-03-09T03:56:15;0.70;99.90
55064;DHT22;40963;52.168;21.296;2023-03-09T03:58:41;0.70;99.90
55064;DHT22;40963;52.168;21.296;2023-03-09T04:01:07;0.70;99.90
55064;DHT22;40963;52.168;21.296;2023-03-09T04:03:33;0.70;99.90
55064;DHT22;40963;52.168;21.296;2023-03-09T04:05:59;0.70;99.90
55064;DHT22;40963;52.168;21.296;2023-03-09T04:08:25;0.70;99.90
55064;DHT22;40963;52.168;21.296;2023-03-09T04:10:50;0.70;99.90
55064;DHT22;40963;52.168;21.296;2023-03-09T04:13:16;0.70;99.90
55064;DHT22;40963;52.168;21.296;2023-03-09T04:15:42;0.70;99.90
55064;DHT22;40963;52.168;21.296;2023-03-09T04:18:08;0.70;99.90
55064;DHT22;40963;52.168;21.296;2023-03-09T04:20:34;0.70;99.90
55064;DHT22;40963;52.168;21.296;2023-03-09T04:23:00;0.70;99.90
55064;DHT22;40963;52.168;21.296;2023-03-09T04:25:26;0.60;99.90
55064;DHT22;40963;52.168;21.296;2023-03-09T04:27:52;0.60;99.90
55064;DHT22;40963;52.168;21.296;2023-03-09T04:30:19;0.60;99.90
55064;DHT22;40963;52.168;21.296;2023-03-09T04:32:46;0.60;99.90
55064;DHT22;40963;52.168;21.296;2023-03-09T04:35:13;0.60;99.90
55064;DHT22;40963;52.168;21.296;2023-03-09T04:37:39;0.60;99.90
55064;DHT22;40963;52.168;21.296;2023-03-09T04:40:05;0.60;99.90
55064;DHT22;40963;52.168;21.296;2023-03-09T04:42:31;0.50;99.90
55064;DHT22;40963;52.168;21.296;2023-03-09T04:44:57;0.50;99.90
55064;DHT22;40963;52.168;21.296;2023-03-09T04:47:22;0.50;99.90
55064;DHT22;40963;52.168;21.296;2023-03-09T04:49:48;0.50;99.90
55064;DHT22;40963;52.168;21.296;2023-03-09T04:52:14;0.40;99.90
55064;DHT22;40963;52.168;21.296;2023-03-09T04:54:40;0.40;99.90
55064;DHT22;40963;52.168;21.296;2023-03-09T04:57:06;0.40;99.90
55064;DHT22;40963;52.168;21.296;2023-03-09T04:59:32;0.40;99.90
55064;DHT22;40963;52.168;21.296;2023-03-09T05:01:58;0.40;99.90
55064;DHT22;40963;52.168;21.296;2023-03-09T05:04:24;0.40;99.90
55064;DHT22;40963;52.168;21.296;2023-03-09T05:06:49;0.40;99.90
55064;DHT22;40963;52.168;21.296;2023-03-09T05:09:16;0.40;99.90
55064;DHT22;40963;52.168;21.296;2023-03-09T05:11:42;0.40;99.90
55064;DHT22;40963;52.168;21.296;2023-03-09T05:14:08;0.30;99.90
55064;DHT22;40963;52.168;21.296;2023-03-09T05:16:34;0.30;99.90
55064;DHT22;40963;52.168;21.296;2023-03-09T05:18:59;0.30;99.90
55064;DHT22;40963;52.168;21.296;2023-03-09T05:21:25;0.30;99.90
55064;DHT22;40963;52.168;21.296;2023-03-09T05:23:51;0.30;99.90
55064;DHT22;40963;52.168;21.296;2023-03-09T05:26:16;0.30;99.90
55064;DHT22;40963;52.168;21.296;2023-03-09T05:28:42;0.30;99.90
55064;DHT22;40963;52.168;21.296;2023-03-09T05:31:09;0.30;99.90
55064;DHT22;40963;52.168;21.296;2023-03-09T05:33:35;0.30;99.90
55064;DHT22;40963;52.168;21.296;2023-03-09T05:36:01;0.30;99.90
55064;DHT22;40963;52.168;21.296;2023-03-09T05:38:27;0.40;99.90
55064;DHT22;40963;52.168;21.296;2023-03-09T05:40:53;0.40;99.90
55064;DHT22;40963;52.168;21.296;2023-03-09T05:43:19;0.40;99.90
55064;DHT22;40963;52.168;21.296;2023-03-09T05:45:52;0.40;99.90
55064;DHT22;40963;52.168;21.296;2023-03-09T05:48:18;0.40;99.90
55064;DHT22;40963;52.168;21.296;2023-03-09T05:50:43;0.50;99.90
55064;DHT22;40963;52.168;21.296;2023-03-09T05:53:09;0.50;99.90
55064;DHT22;40963;52.168;21.296;2023-03-09T05:55:35;0.50;99.90
55064;DHT22;40963;52.168;21.296;2023-03-09T05:58:00;0.50;99.90
55064;DHT22;40963;52.168;21.296;2023-03-09T06:00:26;0.50;99.90
55064;DHT22;40963;52.168;21.296;2023-03-09T06:02:52;0.50;99.90
55064;DHT22;40963;52.168;21.296;2023-03-09T06:05:17;0.50;99.90
55064;DHT22;40963;52.168;21.296;2023-03-09T06:07:43;0.50;99.90
55064;DHT22;40963;52.168;21.296;2023-03-09T06:10:10;0.50;99.90
55064;DHT22;40963;52.168;21.296;2023-03-09T06:12:36;0.50;99.90
55064;DHT22;40963;52.168;21.296;2023-03-09T06:15:02;0.50;99.90
55064;DHT22;40963;52.168;21.296;2023-03-09T06:17:28;0.50;99.90
55064;DHT22;40963;52.168;21.296;2023-03-09T06:19:53;0.50;99.90
55064;DHT22;40963;52.168;21.296;2023-03-09T06:22:19;0.50;99.90
55064;DHT22;40963;52.168;21.296;2023-03-09T06:24:45;0.50;99.90
55064;DHT22;40963;52.168;21.296;2023-03-09T06:27:10;0.50;99.90
55064;DHT22;40963;52.168;21.296;2023-03-09T06:29:36;0.50;99.90
55064;DHT22;40963;52.168;21.296;2023-03-09T06:32:02;0.50;99.90
55064;DHT22;40963;52.168;21.296;2023-03-09T06:34:31;0.50;99.90
55064;DHT22;40963;52.168;21.296;2023-03-09T06:36:56;0.50;99.90
55064;DHT22;40963;52.168;21.296;2023-03-09T06:39:22;0.50;99.90
55064;DHT22;40963;52.168;21.296;2023-03-09T06:41:48;0.50;99.90
55064;DHT22;40963;52.168;21.296;2023-03-09T06:44:15;0.50;99.90
55064;DHT22;40963;52.168;21.296;2023-03-09T06:46:41;0.50;99.90
55064;DHT22;40963;52.168;21.296;2023-03-09T06:49:06;0.50;99.90
55064;DHT22;40963;52.168;21.296;2023-03-09T06:51:32;0.50;99.90
55064;DHT22;40963;52.168;21.296;2023-03-09T06:53:57;0.60;99.90
55064;DHT22;40963;52.168;21.296;2023-03-09T06:56:23;0.60;99.90
55064;DHT22;40963;52.168;21.296;2023-03-09T06:58:49;0.60;99.90
55064;DHT22;40963;52.168;21.296;2023-03-09T07:01:17;0.60;99.90
55064;DHT22;40963;52.168;21.296;2023-03-09T07:03:43;0.60;99.90
55064;DHT22;40963;52.168;21.296;2023-03-09T07:06:09;0.60;99.90
55064;DHT22;40963;52.168;21.296;2023-03-09T07:08:34;0.70;99.90
55064;DHT22;40963;52.168;21.296;2023-03-09T07:11:00;0.70;99.90
55064;DHT22;40963;52.168;21.296;2023-03-09T07:13:26;0.80;99.90
55064;DHT22;40963;52.168;21.296;2023-03-09T07:15:51;0.80;99.90
55064;DHT22;40963;52.168;21.296;2023-03-09T07:18:26;0.90;99.90
55064;DHT22;40963;52.168;21.296;2023-03-09T07:20:51;0.90;99.90
55064;DHT22;40963;52.168;21.296;2023-03-09T07:23:17;0.90;99.90
55064;DHT22;40963;52.168;21.296;2023-03-09T07:25:42;0.90;99.90
55064;DHT22;40963;52.168;21.296;2023-03-09T07:28:08;0.90;99.90
55064;DHT22;40963;52.168;21.296;2023-03-09T07:30:36;0.90;99.90
55064;DHT22;40963;52.168;21.296;2023-03-09T07:33:01;0.90;99.90
55064;DHT22;40963;52.168;21.296;2023-03-09T07:35:27;0.90;99.90
55064;DHT22;40963;52.168;21.296;2023-03-09T07:37:53;0.90;99.90
55064;DHT22;40963;52.168;21.296;2023-03-09T07:40:19;1.00;99.90
55064;DHT22;40963;52.168;21.296;2023-03-09T07:42:49;1.00;99.90
55064;DHT22;40963;52.168;21.296;2023-03-09T07:45:16;1.00;99.90
55064;DHT22;40963;52.168;21.296;2023-03-09T07:47:41;1.00;99.90
55064;DHT22;40963;52.168;21.296;2023-03-09T07:50:08;1.00;99.90
55064;DHT22;40963;52.168;21.296;2023-03-09T07:52:34;1.00;99.90
55064;DHT22;40963;52.168;21.296;2023-03-09T07:55:00;1.00;99.90
55064;DHT22;40963;52.168;21.296;2023-03-09T07:57:32;1.10;99.90
55064;DHT22;40963;52.168;21.296;2023-03-09T07:59:59;1.00;99.90
55064;DHT22;40963;52.168;21.296;2023-03-09T08:02:25;1.10;99.90
55064;DHT22;40963;52.168;21.296;2023-03-09T08:04:51;1.10;99.90
55064;DHT22;40963;52.168;21.296;2023-03-09T08:07:17;1.10;99.90
55064;DHT22;40963;52.168;21.296;2023-03-09T08:09:43;1.10;99.90
55064;DHT22;40963;52.168;21.296;2023-03-09T08:12:09;1.20;99.90
55064;DHT22;40963;52.168;21.296;2023-03-09T08:14:35;1.20;99.90
55064;DHT22;40963;52.168;21.296;2023-03-09T08:17:01;1.10;99.90
55064;DHT22;40963;52.168;21.296;2023-03-09T08:19:29;1.10;99.90
55064;DHT22;40963;52.168;21.296;2023-03-09T08:21:55;1.20;99.90
55064;DHT22;40963;52.168;21.296;2023-03-09T08:24:21;1.20;99.90
55064;DHT22;40963;52.168;21.296;2023-03-09T08:26:47;1.20;99.90
55064;DHT22;40963;52.168;21.296;2023-03-09T08:29:12;1.30;99.90
55064;DHT22;40963;52.168;21.296;2023-03-09T08:31:38;1.40;99.90
55064;DHT22;40963;52.168;21.296;2023-03-09T08:34:04;1.40;99.90
55064;DHT22;40963;52.168;21.296;2023-03-09T08:36:30;1.40;99.90
55064;DHT22;40963;52.168;21.296;2023-03-09T08:38:56;1.40;99.90
55064;DHT22;40963;52.168;21.296;2023-03-09T08:41:22;1.40;99.90
55064;DHT22;40963;52.168;21.296;2023-03-09T08:43:48;1.40;99.90
55064;DHT22;40963;52.168;21.296;2023-03-09T08:46:14;1.50;99.90
55064;DHT22;40963;52.168;21.296;2023-03-09T08:48:40;1.50;99.90
55064;DHT22;40963;52.168;21.296;2023-03-09T08:51:08;1.50;99.90
55064;DHT22;40963;52.168;21.296;2023-03-09T08:53:35;1.50;99.90
55064;DHT22;40963;52.168;21.296;2023-03-09T08:56:05;1.50;99.90
55064;DHT22;40963;52.168;21.296;2023-03-09T08:58:32;1.50;99.90
55064;DHT22;40963;52.168;21.296;2023-03-09T09:01:00;1.50;99.90
55064;DHT22;40963;52.168;21.296;2023-03-09T09:03:27;1.50;99.90
55064;DHT22;40963;52.168;21.296;2023-03-09T09:05:54;1.50;99.90
55064;DHT22;40963;52.168;21.296;2023-03-09T09:08:19;1.60;99.90
55064;DHT22;40963;52.168;21.296;2023-03-09T09:10:45;1.70;99.90
55064;DHT22;40963;52.168;21.296;2023-03-09T09:13:11;1.70;99.90
55064;DHT22;40963;52.168;21.296;2023-03-09T09:15:37;1.70;99.90
55064;DHT22;40963;52.168;21.296;2023-03-09T09:18:05;1.70;99.90
55064;DHT22;40963;52.168;21.296;2023-03-09T09:20:31;1.70;99.90
55064;DHT22;40963;52.168;21.296;2023-03-09T09:22:57;1.60;99.90
55064;DHT22;40963;52.168;21.296;2023-03-09T09:25:24;1.70;99.90
55064;DHT22;40963;52.168;21.296;2023-03-09T09:27:50;1.60;99.90
55064;DHT22;40963;52.168;21.296;2023-03-09T09:30:17;1.60;99.90
55064;DHT22;40963;52.168;21.296;2023-03-09T09:32:43;1.50;99.90
55064;DHT22;40963;52.168;21.296;2023-03-09T09:35:10;1.60;99.90
55064;DHT22;40963;52.168;21.296;2023-03-09T09:37:39;1.60;99.90
55064;DHT22;40963;52.168;21.296;2023-03-09T09:40:11;1.60;99.90
55064;DHT22;40963;52.168;21.296;2023-03-09T09:42:40;1.60;99.90
55064;DHT22;40963;52.168;21.296;2023-03-09T09:45:27;1.50;99.90
55064;DHT22;40963;52.168;21.296;2023-03-09T09:47:54;1.50;99.90
55064;DHT22;40963;52.168;21.296;2023-03-09T09:50:26;1.40;99.90
55064;DHT22;40963;52.168;21.296;2023-03-09T09:55:35;1.40;99.90
55064;DHT22;40963;52.168;21.296;2023-03-09T10:00:59;1.30;99.90
55064;DHT22;40963;52.168;21.296;2023-03-09T10:03:33;1.30;99.90
55064;DHT22;40963;52.168;21.296;2023-03-09T10:06:20;1.40;99.90
55064;DHT22;40963;52.168;21.296;2023-03-09T10:08:56;1.40;99.90
55064;DHT22;40963;52.168;21.296;2023-03-09T10:11:43;1.40;99.90
55064;DHT22;40963;52.168;21.296;2023-03-09T10:16:56;1.40;99.90
55064;DHT22;40963;52.168;21.296;2023-03-09T10:19:35;1.40;99.90
55064;DHT22;40963;52.168;21.296;2023-03-09T10:24:39;1.40;99.90
55064;DHT22;40963;52.168;21.296;2023-03-09T10:32:54;1.40;99.90
55064;DHT22;40963;52.168;21.296;2023-03-09T10:38:12;1.50;99.90
55064;DHT22;40963;52.168;21.296;2023-03-09T10:43:31;1.50;99.90
55064;DHT22;40963;52.168;21.296;2023-03-09T10:48:34;1.60;99.90
55064;DHT22;40963;52.168;21.296;2023-03-09T10:51:02;1.70;99.90
55064;DHT22;40963;52.168;21.296;2023-03-09T10:53:43;1.70;99.90
55064;DHT22;40963;52.168;21.296;2023-03-09T10:56:29;1.80;99.90
55064;DHT22;40963;52.168;21.296;2023-03-09T11:01:35;1.80;99.90
55064;DHT22;40963;52.168;21.296;2023-03-09T11:04:01;1.70;99.90
55064;DHT22;40963;52.168;21.296;2023-03-09T11:06:36;1.70;99.90
55064;DHT22;40963;52.168;21.296;2023-03-09T11:09:11;1.70;99.90
55064;DHT22;40963;52.168;21.296;2023-03-09T11:11:38;1.70;99.90
55064;DHT22;40963;52.168;21.296;2023-03-09T11:14:15;1.70;99.90
55064;DHT22;40963;52.168;21.296;2023-03-09T11:16:50;1.80;99.90
55064;DHT22;40963;52.168;21.296;2023-03-09T11:19:17;1.80;99.90
55064;DHT22;40963;52.168;21.296;2023-03-09T11:22:03;1.80;99.90
55064;DHT22;40963;52.168;21.296;2023-03-09T11:24:39;1.80;99.90
55064;DHT22;40963;52.168;21.296;2023-03-09T11:27:11;1.70;99.90
55064;DHT22;40963;52.168;21.296;2023-03-09T11:32:10;1.60;99.90
55064;DHT22;40963;52.168;21.296;2023-03-09T11:34:40;1.60;99.90
55064;DHT22;40963;52.168;21.296;2023-03-09T11:37:17;1.60;99.90
55064;DHT22;40963;52.168;21.296;2023-03-09T11:42:19;1.70;99.90
55064;DHT22;40963;52.168;21.296;2023-03-09T11:44:48;1.70;99.90
55064;DHT22;40963;52.168;21.296;2023-03-09T11:47:39;1.70;99.90
55064;DHT22;40963;52.168;21.296;2023-03-09T11:50:18;1.70;99.90
55064;DHT22;40963;52.168;21.296;2023-03-09T11:52:58;1.60;99.90
55064;DHT22;40963;52.168;21.296;2023-03-09T11:55:38;1.70;99.90
55064;DHT22;40963;52.168;21.296;2023-03-09T11:58:14;1.70;99.90
55064;DHT22;40963;52.168;21.296;2023-03-09T12:00:47;1.70;99.90
55064;DHT22;40963;52.168;21.296;2023-03-09T12:03:15;1.70;99.90
55064;DHT22;40963;52.168;21.296;2023-03-09T12:05:55;1.60;99.90
55064;DHT22;40963;52.168;21.296;2023-03-09T12:08:50;1.60;99.90
55064;DHT22;40963;52.168;21.296;2023-03-09T12:11:19;1.60;99.90
55064;DHT22;40963;52.168;21.296;2023-03-09T12:13:57;1.60;99.90
55064;DHT22;40963;52.168;21.296;2023-03-09T12:16:34;1.50;99.90
55064;DHT22;40963;52.168;21.296;2023-03-09T12:19:13;1.50;99.90
55064;DHT22;40963;52.168;21.296;2023-03-09T12:21:46;1.50;99.90
55064;DHT22;40963;52.168;21.296;2023-03-09T12:24:21;1.50;99.90
55064;DHT22;40963;52.168;21.296;2023-03-09T12:27:16;1.50;99.90
55064;DHT22;40963;52.168;21.296;2023-03-09T12:34:53;1.50;99.90
55064;DHT22;40963;52.168;21.296;2023-03-09T12:42:46;1.40;99.90
55064;DHT22;40963;52.168;21.296;2023-03-09T12:51:14;1.20;99.90
55064;DHT22;40963;52.168;21.296;2023-03-09T12:53:22;1.20;99.90
55064;DHT22;40963;52.168;21.296;2023-03-09T12:55:50;1.20;99.90
55064;DHT22;40963;52.168;21.296;2023-03-09T13:00:59;1.10;99.90
55064;DHT22;40963;52.168;21.296;2023-03-09T13:03:32;1.00;99.90
55064;DHT22;40963;52.168;21.296;2023-03-09T13:08:32;1.00;99.90
55064;DHT22;40963;52.168;21.296;2023-03-09T13:11:25;1.10;99.90
55064;DHT22;40963;52.168;21.296;2023-03-09T13:21:43;1.00;99.90
55064;DHT22;40963;52.168;21.296;2023-03-09T13:24:22;0.90;99.90
55064;DHT22;40963;52.168;21.296;2023-03-09T13:26:52;0.80;99.90
55064;DHT22;40963;52.168;21.296;2023-03-09T13:29:24;0.80;99.90
55064;DHT22;40963;52.168;21.296;2023-03-09T13:31:51;0.80;99.90
55064;DHT22;40963;52.168;21.296;2023-03-09T13:34:31;0.70;99.90
55064;DHT22;40963;52.168;21.296;2023-03-09T13:37:03;0.80;99.90
55064;DHT22;40963;52.168;21.296;2023-03-09T13:39:30;0.70;99.90
55064;DHT22;40963;52.168;21.296;2023-03-09T13:41:58;0.70;99.90
55064;DHT22;40963;52.168;21.296;2023-03-09T13:44:25;0.70;99.90
55064;DHT22;40963;52.168;21.296;2023-03-09T13:46:54;0.60;99.90
55064;DHT22;40963;52.168;21.296;2023-03-09T13:51:54;0.70;99.90
55064;DHT22;40963;52.168;21.296;2023-03-09T13:54:31;0.70;99.90
55064;DHT22;40963;52.168;21.296;2023-03-09T13:57:24;0.70;99.90
55064;DHT22;40963;52.168;21.296;2023-03-09T14:02:33;0.70;99.90
55064;DHT22;40963;52.168;21.296;2023-03-09T14:05:03;0.80;99.90
55064;DHT22;40963;52.168;21.296;2023-03-09T14:09:59;0.80;99.90
55064;DHT22;40963;52.168;21.296;2023-03-09T14:12:32;0.80;99.90
55064;DHT22;40963;52.168;21.296;2023-03-09T14:15:00;0.80;99.90
55064;DHT22;40963;52.168;21.296;2023-03-09T14:17:27;0.80;99.90
55064;DHT22;40963;52.168;21.296;2023-03-09T14:19:54;0.80;99.90
55064;DHT22;40963;52.168;21.296;2023-03-09T14:22:26;0.70;99.90
55064;DHT22;40963;52.168;21.296;2023-03-09T14:24:53;0.70;99.90
55064;DHT22;40963;52.168;21.296;2023-03-09T14:27:33;0.60;99.90
55064;DHT22;40963;52.168;21.296;2023-03-09T14:33:11;0.60;99.90
55064;DHT22;40963;52.168;21.296;2023-03-09T14:35:45;0.50;99.90
55064;DHT22;40963;52.168;21.296;2023-03-09T14:38:19;0.40;99.90
55064;DHT22;40963;52.168;21.296;2023-03-09T14:40:46;0.40;99.90
55064;DHT22;40963;52.168;21.296;2023-03-09T14:43:31;0.40;99.90
55064;DHT22;40963;52.168;21.296;2023-03-09T14:46:28;0.30;99.90
55064;DHT22;40963;52.168;21.296;2023-03-09T14:48:58;0.30;99.90
55064;DHT22;40963;52.168;21.296;2023-03-09T14:51:32;0.20;99.90
55064;DHT22;40963;52.168;21.296;2023-03-09T14:56:32;0.20;99.90
55064;DHT22;40963;52.168;21.296;2023-03-09T14:59:01;0.20;99.90
55064;DHT22;40963;52.168;21.296;2023-03-09T15:01:33;0.20;99.90
55064;DHT22;40963;52.168;21.296;2023-03-09T15:03:58;0.20;99.90
55064;DHT22;40963;52.168;21.296;2023-03-09T15:06:25;0.30;99.90
55064;DHT22;40963;52.168;21.296;2023-03-09T15:08:51;0.20;99.90
55064;DHT22;40963;52.168;21.296;2023-03-09T15:11:17;0.20;99.90
55064;DHT22;40963;52.168;21.296;2023-03-09T15:13:42;0.20;99.90
55064;DHT22;40963;52.168;21.296;2023-03-09T15:16:10;0.20;99.90
55064;DHT22;40963;52.168;21.296;2023-03-09T15:18:36;0.20;99.90
55064;DHT22;40963;52.168;21.296;2023-03-09T15:21:02;0.20;99.90
55064;DHT22;40963;52.168;21.296;2023-03-09T15:23:27;0.20;99.90
55064;DHT22;40963;52.168;21.296;2023-03-09T15:25:54;0.20;99.90
55064;DHT22;40963;52.168;21.296;2023-03-09T15:28:20;0.30;99.90
55064;DHT22;40963;52.168;21.296;2023-03-09T15:30:45;0.30;99.90
55064;DHT22;40963;52.168;21.296;2023-03-09T15:33:11;0.30;99.90
55064;DHT22;40963;52.168;21.296;2023-03-09T15:35:39;0.30;99.90
55064;DHT22;40963;52.168;21.296;2023-03-09T15:38:05;0.30;99.90
55064;DHT22;40963;52.168;21.296;2023-03-09T15:40:31;0.30;99.90
55064;DHT22;40963;52.168;21.296;2023-03-09T15:42:56;0.30;99.90
55064;DHT22;40963;52.168;21.296;2023-03-09T15:45:22;0.30;99.90
55064;DHT22;40963;52.168;21.296;2023-03-09T15:47:52;0.30;99.90
55064;DHT22;40963;52.168;21.296;2023-03-09T15:50:19;0.40;99.90
55064;DHT22;40963;52.168;21.296;2023-03-09T15:52:44;0.40;99.90
55064;DHT22;40963;52.168;21.296;2023-03-09T15:55:10;0.40;99.90
55064;DHT22;40963;52.168;21.296;2023-03-09T15:57:37;0.40;99.90
55064;DHT22;40963;52.168;21.296;2023-03-09T16:00:03;0.40;99.90
55064;DHT22;40963;52.168;21.296;2023-03-09T16:02:29;0.30;99.90
55064;DHT22;40963;52.168;21.296;2023-03-09T16:04:55;0.30;99.90
55064;DHT22;40963;52.168;21.296;2023-03-09T16:07:20;0.30;99.90
55064;DHT22;40963;52.168;21.296;2023-03-09T16:09:46;0.30;99.90
55064;DHT22;40963;52.168;21.296;2023-03-09T16:12:12;0.30;99.90
55064;DHT22;40963;52.168;21.296;2023-03-09T16:14:38;0.30;99.90
55064;DHT22;40963;52.168;21.296;2023-03-09T16:17:03;0.30;99.90
55064;DHT22;40963;52.168;21.296;2023-03-09T16:19:29;0.30;99.90
55064;DHT22;40963;52.168;21.296;2023-03-09T16:21:55;0.30;99.90
55064;DHT22;40963;52.168;21.296;2023-03-09T16:24:21;0.30;99.90
55064;DHT22;40963;52.168;21.296;2023-03-09T16:26:46;0.30;99.90
55064;DHT22;40963;52.168;21.296;2023-03-09T16:29:12;0.30;99.90
55064;DHT22;40963;52.168;21.296;2023-03-09T16:31:38;0.30;99.90
55064;DHT22;40963;52.168;21.296;2023-03-09T16:34:04;0.30;99.90
55064;DHT22;40963;52.168;21.296;2023-03-09T16:36:30;0.30;99.90
55064;DHT22;40963;52.168;21.296;2023-03-09T16:38:56;0.30;99.90
55064;DHT22;40963;52.168;21.296;2023-03-09T16:41:26;0.30;99.90
55064;DHT22;40963;52.168;21.296;2023-03-09T16:43:52;0.30;99.90
55064;DHT22;40963;52.168;21.296;2023-03-09T16:46:20;0.30;99.90
55064;DHT22;40963;52.168;21.296;2023-03-09T16:48:46;0.30;99.90
55064;DHT22;40963;52.168;21.296;2023-03-09T16:51:15;0.30;99.90
55064;DHT22;40963;52.168;21.296;2023-03-09T16:53:42;0.30;99.90
55064;DHT22;40963;52.168;21.296;2023-03-09T16:56:08;0.30;99.90
55064;DHT22;40963;52.168;21.296;2023-03-09T16:58:36;0.40;99.90
55064;DHT22;40963;52.168;21.296;2023-03-09T17:01:02;0.30;99.90
55064;DHT22;40963;52.168;21.296;2023-03-09T17:03:28;0.30;99.90
55064;DHT22;40963;52.168;21.296;2023-03-09T17:05:58;0.40;99.90